Portada
METAR-TAF:

METAR-TAF

Aeroports :

Darwin, Austràlia

latitud: 12-24S, longitud: 130-52E, altitud: 31 m

Observació

L'informe es va fer fa 19 minuts, a les 20:00 UTC
Vent 8 kt del Oest
Temperatura 29°C
Humitat 79%
Pressió 1004 hPa
Visibilitat 10 km o més
Escasses núvols a una alçada de 1800 ft
Núvols disperses a una alçada de 30000 ft

METAR: YPDN 142000Z 26008KT 9999 FEW018 SCT300 29/25 Q1004

Hora: 05:49 (20:19 UTC)

Pronòstic

L'informe es va fer fa 3 hores i 12 minuts, a les 17:07 UTC
Pronòstic vàlid del 14 a les 18 UTC al 15 a les 24 UTC
Vent 10 kt del Oest
Visibilitat 10 km o més
Escasses núvols a una alçada de 2000 ft
A partir de les 15 a les 0200 UTC
Vent 15 kt del Oest amb ràfegues de 25 kt
Visibilitat 10 km o més
Núvols disperses a una alçada de 3000 ft
A partir de les 15 a les 0700 UTC
Vent 12 kt del Oest
Visibilitat 10 km o més
Escasses núvols a una alçada de 2000 ft

TAF: YPDN 141707Z 1418/1524 26010KT 9999 FEW020 FM150200 28015G25KT 9999 SCT030 FM150700 27012KT 9999 FEW020

Observacions i pronòstics meteorològics de més de 4000 aeroports (METAR i TAF).

Les estacions disponibles són els punts grocs i vermells al mapa.

Posi el ratolí al punt desitjat per veure el nom de l'estació.

Feu clic per veure les observacions i els pronòstics meteorològics.

Per canviar el mapa: feu clic els botons verds amb una creu de color negre per apropar; al botó verd amb un guió per allunyar la imatge; o en les fletxes verdes per a mapes adjacents.


METAR-TAF: